LFSB/MLH METAR and TAF weather

Enter ICAO airport designator
Station Type Date Time Source
LFSB METAR 2021/04/13 22:00 UTC NOAA

LFSB 132200Z AUTO 10002KT CAVOK 04/00 Q1029 NOSIG


Station Type Date Time Source
LFSB Decoded METAR 2021/04/13 22:00 UTC NOAA

Bale-Mulhouse, France (LFSB) 47-36N 007-31E 271M
Apr 13, 2021 - 06:00 PM EDT / 2021.04.13 2200 UTC
Wind: from the E (100 degrees) at 2 MPH (2 KT):0
Visibility: greater than 7 mile(s):0
Temperature: 39 F (4 C)
Dew Point: 32 F (0 C)
Relative Humidity: 75%
Pressure (altimeter): 30.39 in. Hg (1029 hPa)
ob: LFSB 132200Z AUTO 10002KT CAVOK 04/00 Q1029 NOSIG
cycle: 22

Station Type Date Time Source
LFSB TAF 2021/04/13 18:21 UTC NOAA

TAF LFSB 131700Z 1318/1418 04006KT 9999 FEW040 SCT070
BECMG 1318/1320 VRB03KT CAVOK
BECMG 1408/1410 35008KT SCT040

Example: see airport list